^^
Station Historical Data
 
Daily Summary for June 21, 2018 Units:  Both    English   Metric
« Previous Day
Next Day »
Daily Weekly Monthly Yearly Custom
  Current: High: Low: Average:
Temperature: 13.6 °F /  -10.2 °C TemperatureC °F /  -17.8 °C 9.6 °F /  -12.4 °C 11.7 °F /  -11.3 °C
Dew Point: 10.0 °F /  -12.2 °C DewpointC °F /  -17.8 °C 8.0 °F /  -13.3 °C 9.1 °F /  -12.7 °C
Humidity: 79% Humidity% 77% 83%
Wind Speed: 0.0mph /  0km/h WindSpeedKMHmph /  0km/h - 0mph /  0km/h
Wind Gust: 5.6mph /  9km/h WindSpeedGustKMHmph /  0km/h - -
WindCalm - - SW
Pressure: 1004.9 in /  34025.9 hPa PressurehPa in /  0 hPa 1004.6 in /  34015.8 hPa -
Precipitation: 0.0 in /  0 mm      
Historical Graphs
 
 
Tabular Data for June 21, 2018
Time Temperature Dew Point Pressure Wind Wind Speed Wind Gust Humidity Rainfall Rate (Hourly) solar Conditions
TemperatureC °F /  -17.8 °C DewpointC °F /  -17.8 °C PressurehPain /  0hPa Calm     Humidity% HourlyPrecipMMin /  0mm SoftwareType W/m2 Conditions
00:04 13.8 °F /  -10.1 °C 9.8 °F /  -12.3 °C 1006.1in /  34066.5hPa Calm   5.6mph /  9km/h 77% 0.0in /  0mm WeatherDisplay:10.37 W/m2 CLR
00:09 13.7 °F /  -10.2 °C 9.8 °F /  -12.3 °C 1006.0in /  34063.2hPa Calm     77% 0.0in /  0mm WeatherDisplay:10.37 W/m2 CLR
00:14 13.7 °F /  -10.2 °C 9.7 °F /  -12.4 °C 1006.0in /  34063.2hPa Calm     77% 0.0in /  0mm WeatherDisplay:10.37 W/m2 CLR
00:19 13.7 °F /  -10.2 °C 9.7 °F /  -12.4 °C 1006.0in /  34063.2hPa Calm     77% 0.0in /  0mm WeatherDisplay:10.37 W/m2 CLR
00:24 13.6 °F /  -10.2 °C 9.8 °F /  -12.3 °C 1006.0in /  34063.2hPa Calm   1.9mph /  3.1km/h 78% 0.0in /  0mm WeatherDisplay:10.37 W/m2 CLR
00:29 13.5 °F /  -10.3 °C 9.7 °F /  -12.4 °C 1005.9in /  34059.8hPa Calm     78% 0.0in /  0mm WeatherDisplay:10.37 W/m2 CLR
00:34 13.4 °F /  -10.3 °C 9.7 °F /  -12.4 °C 1005.9in /  34059.8hPa Calm     78% 0.0in /  0mm WeatherDisplay:10.37 W/m2 CLR
00:39 13.4 °F /  -10.3 °C 9.8 °F /  -12.3 °C 1005.8in /  34056.4hPa Calm     79% 0.0in /  0mm WeatherDisplay:10.37 W/m2 CLR
00:44 13.3 °F /  -10.4 °C 9.9 °F /  -12.3 °C 1005.8in /  34056.4hPa Calm     80% 0.0in /  0mm WeatherDisplay:10.37 W/m2 CLR
00:49 13.3 °F /  -10.4 °C 9.9 °F /  -12.3 °C 1005.8in /  34056.4hPa Calm     80% 0.0in /  0mm WeatherDisplay:10.37 W/m2 CLR
00:54 13.2 °F /  -10.4 °C 9.8 °F /  -12.3 °C 1005.7in /  34053hPa Calm     80% 0.0in /  0mm WeatherDisplay:10.37 W/m2 CLR
00:59 13.2 °F /  -10.4 °C 9.8 °F /  -12.3 °C 1005.8in /  34056.4hPa Calm     80% 0.0in /  0mm WeatherDisplay:10.37 W/m2 CLR
01:04 13.2 °F /  -10.4 °C 10.0 °F /  -12.2 °C 1005.7in /  34053hPa Calm   1.9mph /  3.1km/h 81% 0.0in /  0mm WeatherDisplay:10.37 W/m2 CLR
01:09 13.2 °F /  -10.4 °C 10.0 °F /  -12.2 °C 1005.7in /  34053hPa Calm     81% 0.0in /  0mm WeatherDisplay:10.37 W/m2 CLR
01:14 13.1 °F /  -10.5 °C 9.9 °F /  -12.3 °C 1005.6in /  34049.6hPa Calm     81% 0.0in /  0mm WeatherDisplay:10.37 W/m2 CLR
01:19 13.1 °F /  -10.5 °C 9.9 °F /  -12.3 °C 1005.6in /  34049.6hPa Calm     81% 0.0in /  0mm WeatherDisplay:10.37 W/m2 CLR
01:24 13.1 °F /  -10.5 °C 9.9 °F /  -12.3 °C 1005.6in /  34049.6hPa Calm     81% 0.0in /  0mm WeatherDisplay:10.37 W/m2 CLR
01:29 13.0 °F /  -10.6 °C 9.8 °F /  -12.3 °C 1005.6in /  34049.6hPa Calm     81% 0.0in /  0mm WeatherDisplay:10.37 W/m2 CLR
01:34 12.9 °F /  -10.6 °C 9.9 °F /  -12.3 °C 1005.7in /  34053hPa Calm     82% 0.0in /  0mm WeatherDisplay:10.37 W/m2 CLR
01:39 12.9 °F /  -10.6 °C 9.9 °F /  -12.3 °C 1005.5in /  34046.2hPa Calm     82% 0.0in /  0mm WeatherDisplay:10.37 W/m2 CLR
01:44 12.9 °F /  -10.6 °C 9.7 °F /  -12.4 °C 1005.6in /  34049.6hPa Calm     81% 0.0in /  0mm WeatherDisplay:10.37 W/m2 CLR
01:49 12.9 °F /  -10.6 °C 9.7 °F /  -12.4 °C 1005.5in /  34046.2hPa Calm     81% 0.0in /  0mm WeatherDisplay:10.37 W/m2 CLR
01:54 12.9 °F /  -10.6 °C 9.7 °F /  -12.4 °C 1005.5in /  34046.2hPa Calm     81% 0.0in /  0mm WeatherDisplay:10.37 W/m2 CLR
01:59 12.8 °F /  -10.7 °C 9.7 °F /  -12.4 °C 1005.5in /  34046.2hPa Calm     81% 0.0in /  0mm WeatherDisplay:10.37 W/m2 CLR
02:04 12.8 °F /  -10.7 °C 9.4 °F /  -12.6 °C 1005.5in /  34046.2hPa Calm     80% 0.0in /  0mm WeatherDisplay:10.37 W/m2 CLR
02:09 12.8 °F /  -10.7 °C 9.6 °F /  -12.4 °C 1005.6in /  34049.6hPa Calm     81% 0.0in /  0mm WeatherDisplay:10.37 W/m2 CLR
02:14 12.7 °F /  -10.7 °C 9.5 °F /  -12.5 °C 1005.6in /  34049.6hPa Calm     81% 0.0in /  0mm WeatherDisplay:10.37 W/m2 CLR
02:19 12.7 °F /  -10.7 °C 9.5 °F /  -12.5 °C 1005.5in /  34046.2hPa Calm     81% 0.0in /  0mm WeatherDisplay:10.37 W/m2 CLR
02:24 12.6 °F /  -10.8 °C 9.4 °F /  -12.6 °C 1005.5in /  34046.2hPa West 0.5mph /  0.8km/h 3.2mph /  5.1km/h 81% 0.0in /  0mm WeatherDisplay:10.37 W/m2 CLR
02:29 12.5 °F /  -10.8 °C 9.3 °F /  -12.6 °C 1005.5in /  34046.2hPa Calm     81% 0.0in /  0mm WeatherDisplay:10.37 W/m2 CLR
02:34 12.4 °F /  -10.9 °C 9.3 °F /  -12.6 °C 1005.4in /  34042.8hPa Calm     81% 0.0in /  0mm WeatherDisplay:10.37 W/m2 CLR
02:39 12.4 °F /  -10.9 °C 9.3 °F /  -12.6 °C 1005.3in /  34039.5hPa Calm     81% 0.0in /  0mm WeatherDisplay:10.37 W/m2 CLR
02:44 12.4 °F /  -10.9 °C 9.2 °F /  -12.7 °C 1005.3in /  34039.5hPa Calm     81% 0.0in /  0mm WeatherDisplay:10.37 W/m2 CLR
02:49 12.3 °F /  -10.9 °C 9.3 °F /  -12.6 °C 1005.2in /  34036.1hPa Calm     82% 0.0in /  0mm WeatherDisplay:10.37 W/m2 CLR
02:54 12.2 °F /  -11 °C 9.2 °F /  -12.7 °C 1005.1in /  34032.7hPa Calm     82% 0.0in /  0mm WeatherDisplay:10.37 W/m2 CLR
02:59 12.2 °F /  -11 °C 9.2 °F /  -12.7 °C 1005.2in /  34036.1hPa Calm     82% 0.0in /  0mm WeatherDisplay:10.37 W/m2 CLR
03:04 12.2 °F /  -11 °C 9.4 °F /  -12.6 °C 1005.2in /  34036.1hPa Calm     83% 0.0in /  0mm WeatherDisplay:10.37 W/m2 CLR
03:09 12.2 °F /  -11 °C 9.4 °F /  -12.6 °C 1005.2in /  34036.1hPa Calm     83% 0.0in /  0mm WeatherDisplay:10.37 W/m2 CLR
03:14 12.2 °F /  -11 °C 9.4 °F /  -12.6 °C 1005.3in /  34039.5hPa Calm     83% 0.0in /  0mm WeatherDisplay:10.37 W/m2 CLR
03:19 12.1 °F /  -11.1 °C 9.3 °F /  -12.6 °C 1005.3in /  34039.5hPa Calm     83% 0.0in /  0mm WeatherDisplay:10.37 W/m2 CLR
03:24 12.0 °F /  -11.1 °C 9.2 °F /  -12.7 °C 1005.3in /  34039.5hPa Calm     83% 0.0in /  0mm WeatherDisplay:10.37 W/m2 CLR
03:29 11.8 °F /  -11.2 °C 9.2 °F /  -12.7 °C 1005.3in /  34039.5hPa Calm     84% 0.0in /  0mm WeatherDisplay:10.37 W/m2 CLR
03:34 11.7 °F /  -11.3 °C 9.1 °F /  -12.7 °C 1005.2in /  34036.1hPa Calm     84% 0.0in /  0mm WeatherDisplay:10.37 W/m2 CLR
03:39 11.6 °F /  -11.3 °C 9.1 °F /  -12.7 °C 1005.2in /  34036.1hPa Calm     85% 0.0in /  0mm WeatherDisplay:10.37 W/m2 CLR
03:44 11.3 °F /  -11.5 °C 8.9 °F /  -12.8 °C 1005.1in /  34032.7hPa Calm     85% 0.0in /  0mm WeatherDisplay:10.37 W/m2 CLR
03:49 11.2 °F /  -11.6 °C 8.7 °F /  -12.9 °C 1005.1in /  34032.7hPa Calm     85% 0.0in /  0mm WeatherDisplay:10.37 W/m2 CLR
03:54 10.9 °F /  -11.7 °C 8.7 °F /  -12.9 °C 1005.0in /  34029.3hPa Calm     86% 0.0in /  0mm WeatherDisplay:10.37 W/m2 CLR
03:59 10.7 °F /  -11.8 °C 8.5 °F /  -13.1 °C 1004.9in /  34025.9hPa Calm     86% 0.0in /  0mm WeatherDisplay:10.37 W/m2 CLR
04:04 10.5 °F /  -11.9 °C 8.4 °F /  -13.1 °C 1004.9in /  34025.9hPa Calm     87% 0.0in /  0mm WeatherDisplay:10.37 W/m2 CLR
04:09 10.4 °F /  -12 °C 8.3 °F /  -13.2 °C 1004.9in /  34025.9hPa Calm     87% 0.0in /  0mm WeatherDisplay:10.37 W/m2 CLR
04:14 10.2 °F /  -12.1 °C 8.3 °F /  -13.2 °C 1004.9in /  34025.9hPa Calm     88% 0.0in /  0mm WeatherDisplay:10.37 W/m2 CLR
04:19 10.1 °F /  -12.2 °C 8.2 °F /  -13.2 °C 1004.9in /  34025.9hPa Calm     88% 0.0in /  0mm WeatherDisplay:10.37 W/m2 CLR
04:24 10.1 °F /  -12.2 °C 8.2 °F /  -13.2 °C 1005.0in /  34029.3hPa Calm     88% 0.0in /  0mm WeatherDisplay:10.37 W/m2 CLR
04:29 9.9 °F /  -12.3 °C 8.2 °F /  -13.2 °C 1005.0in /  34029.3hPa Calm     89% 0.0in /  0mm WeatherDisplay:10.37 W/m2 CLR
04:34 9.9 °F /  -12.3 °C 8.2 °F /  -13.2 °C 1005.0in /  34029.3hPa Calm     89% 0.0in /  0mm WeatherDisplay:10.37 W/m2 CLR
04:39 9.8 °F /  -12.3 °C 8.1 °F /  -13.3 °C 1005.0in /  34029.3hPa Calm     89% 0.0in /  0mm WeatherDisplay:10.37 W/m2 CLR
04:44 9.8 °F /  -12.3 °C 8.1 °F /  -13.3 °C 1005.0in /  34029.3hPa Calm     89% 0.0in /  0mm WeatherDisplay:10.37 W/m2 CLR
04:49 9.7 °F /  -12.4 °C 8.0 °F /  -13.3 °C 1005.0in /  34029.3hPa Calm     89% 0.0in /  0mm WeatherDisplay:10.37 W/m2 CLR
04:54 9.7 °F /  -12.4 °C 8.2 °F /  -13.2 °C 1005.0in /  34029.3hPa Calm     90% 0.0in /  0mm WeatherDisplay:10.37 W/m2 CLR
04:59 9.7 °F /  -12.4 °C 8.1 °F /  -13.3 °C 1005.0in /  34029.3hPa Calm     90% 0.0in /  0mm WeatherDisplay:10.37 W/m2 CLR
05:04 9.6 °F /  -12.4 °C 8.1 °F /  -13.3 °C 1005.0in /  34029.3hPa Calm     90% 0.0in /  0mm WeatherDisplay:10.37 W/m2 CLR
05:09 9.6 °F /  -12.4 °C 8.1 °F /  -13.3 °C 1005.0in /  34029.3hPa Calm     90% 0.0in /  0mm WeatherDisplay:10.37 W/m2 CLR
05:14 9.7 °F /  -12.4 °C 8.1 °F /  -13.3 °C 1005.0in /  34029.3hPa Calm     90% 0.0in /  0mm WeatherDisplay:10.37 W/m2 CLR
05:19 9.7 °F /  -12.4 °C 8.1 °F /  -13.3 °C 1005.0in /  34029.3hPa Calm     90% 0.0in /  0mm WeatherDisplay:10.37 W/m2 CLR
05:24 9.8 °F /  -12.3 °C 8.2 °F /  -13.2 °C 1005.0in /  34029.3hPa Calm     90% 0.0in /  0mm WeatherDisplay:10.37 W/m2 CLR
05:29 9.8 °F /  -12.3 °C 8.3 °F /  -13.2 °C 1005.0in /  34029.3hPa Calm     90% 0.0in /  0mm WeatherDisplay:10.37 W/m2 CLR
05:34 9.9 °F /  -12.3 °C 8.4 °F /  -13.1 °C 1005.0in /  34029.3hPa Calm     90% 0.0in /  0mm WeatherDisplay:10.37 W/m2 CLR
05:39 10.0 °F /  -12.2 °C 9.1 °F /  -12.7 °C 1005.0in /  34029.3hPa Calm     94% 0.0in /  0mm WeatherDisplay:10.37 W/m2 CLR
05:44 10.1 °F /  -12.2 °C 8.6 °F /  -13 °C 1005.0in /  34029.3hPa Calm     90% 0.0in /  0mm WeatherDisplay:10.37 W/m2 CLR
05:49 10.2 °F /  -12.1 °C 8.7 °F /  -12.9 °C 1004.9in /  34025.9hPa Calm     90% 0.0in /  0mm WeatherDisplay:10.37 W/m2 CLR
05:54 10.4 °F /  -12 °C 8.7 °F /  -12.9 °C 1004.9in /  34025.9hPa Calm     89% 0.0in /  0mm WeatherDisplay:10.37 W/m2 CLR
05:59 10.6 °F /  -11.9 °C 8.9 °F /  -12.8 °C 1004.8in /  34022.5hPa Calm     89% 0.0in /  0mm WeatherDisplay:10.37 W/m2 CLR
06:04 10.8 °F /  -11.8 °C 8.9 °F /  -12.8 °C 1004.8in /  34022.5hPa Calm     88% 0.0in /  0mm WeatherDisplay:10.37 W/m2 CLR
06:09 10.9 °F /  -11.7 °C 9.1 °F /  -12.7 °C 1004.8in /  34022.5hPa Calm     88% 0.0in /  0mm WeatherDisplay:10.37 W/m2 CLR
06:14 11.1 °F /  -11.6 °C 9.0 °F /  -12.8 °C 1004.8in /  34022.5hPa Calm     87% 0.0in /  0mm WeatherDisplay:10.37 W/m2 CLR
06:19 11.2 °F /  -11.6 °C 8.9 °F /  -12.8 °C 1004.8in /  34022.5hPa Calm     86% 0.0in /  0mm WeatherDisplay:10.37 W/m2 CLR
06:24 11.3 °F /  -11.5 °C 8.9 °F /  -12.8 °C 1004.8in /  34022.5hPa Calm     85% 0.0in /  0mm WeatherDisplay:10.37 W/m2 CLR
06:29 11.5 °F /  -11.4 °C 9.1 °F /  -12.7 °C 1004.7in /  34019.1hPa Calm     85% 0.0in /  0mm WeatherDisplay:10.37 W/m2 CLR
06:34 11.7 °F /  -11.3 °C 8.9 °F /  -12.8 °C 1004.7in /  34019.1hPa Calm     83% 0.0in /  0mm WeatherDisplay:10.37 W/m2 CLR
06:39 11.8 °F /  -11.2 °C 9.1 °F /  -12.7 °C 1004.7in /  34019.1hPa Calm     83% 0.0in /  0mm WeatherDisplay:10.37 W/m2 CLR
06:44 12.0 °F /  -11.1 °C 9.4 °F /  -12.6 °C 1004.7in /  34019.1hPa Calm     84% 0.0in /  0mm WeatherDisplay:10.37 W/m2 CLR
06:49 12.2 °F /  -11 °C 9.2 °F /  -12.7 °C 1004.6in /  34015.8hPa Calm     82% 0.0in /  0mm WeatherDisplay:10.37 W/m2 CLR
06:54 12.2 °F /  -11 °C 9.1 °F /  -12.7 °C 1004.7in /  34019.1hPa Calm     81% 0.0in /  0mm WeatherDisplay:10.37 W/m2 CLR
06:59 12.3 °F /  -10.9 °C 9.3 °F /  -12.6 °C 1004.8in /  34022.5hPa Calm     82% 0.0in /  0mm WeatherDisplay:10.37 W/m2 CLR
07:04 12.4 °F /  -10.9 °C 9.4 °F /  -12.6 °C 1004.8in /  34022.5hPa Calm     82% 0.0in /  0mm WeatherDisplay:10.37 W/m2 CLR
07:09 12.6 °F /  -10.8 °C 9.4 °F /  -12.6 °C 1004.8in /  34022.5hPa Calm   1.9mph /  3.1km/h 81% 0.0in /  0mm WeatherDisplay:10.37 W/m2 CLR
07:14 12.6 °F /  -10.8 °C 9.4 °F /  -12.6 °C 1004.8in /  34022.5hPa Calm     81% 0.0in /  0mm WeatherDisplay:10.37 W/m2 CLR
07:19 12.8 °F /  -10.7 °C 9.6 °F /  -12.4 °C 1004.9in /  34025.9hPa Calm     81% 0.0in /  0mm WeatherDisplay:10.37 W/m2 CLR
07:24 12.9 °F /  -10.6 °C 9.6 °F /  -12.4 °C 1004.8in /  34022.5hPa Calm     80% 0.0in /  0mm WeatherDisplay:10.37 W/m2 CLR
07:29 13.1 °F /  -10.5 °C 9.7 °F /  -12.4 °C 1004.8in /  34022.5hPa Calm     80% 0.0in /  0mm WeatherDisplay:10.37 W/m2 CLR
07:34 13.1 °F /  -10.5 °C 9.5 °F /  -12.5 °C 1004.9in /  34025.9hPa Calm     79% 0.0in /  0mm WeatherDisplay:10.37 W/m2 SCT
07:39 13.2 °F /  -10.4 °C 10.0 °F /  -12.2 °C 1004.9in /  34025.9hPa SSW 0.2mph /  0.3km/h 1.6mph /  2.6km/h 81% 0.0in /  0mm WeatherDisplay:10.37 W/m2 SCT
07:44 13.3 °F /  -10.4 °C 9.9 °F /  -12.3 °C 1004.9in /  34025.9hPa Calm   1.9mph /  3.1km/h 80% 0.0in /  0mm WeatherDisplay:10.37 W/m2 SCT
07:49 13.6 °F /  -10.2 °C 10.0 °F /  -12.2 °C 1004.9in /  34025.9hPa Calm   5.6mph /  9km/h 79% 0.0in /  0mm WeatherDisplay:10.37 W/m2 SCT
Tuulensuunkaari, Veikkola, Suomi
Compliments of Weather Underground - 1.75 mb